• Join FlightAware (Why Join?)
  • Login
  • US Flag 
11:26PM EDT


 

Airport Tracker/Info


-or-


 

Live Flight TrackerFlight Track Log ✈ CTA400 ✈ 14-Jun-2013 ✈ KLBB - KADS

Flight Track Log - Related Links

Times and Time Zones

All times are in EDT time to prevent confusion due to time zone crossing. See the CTA400 flight status page for this flight to view local times or setup timezone preferences in your user account.

Time Position Orientation Groundspeed Altitude Reporting Facility
EDT Latitude Longitude Course Direction KTS MPH feet Rate Location/Type
07:12PM 33.6600 -101.7481 88° East 125 144 5,100  Level Fort Worth Center
07:13PM 33.6614 -101.7058 88° East 129 148 6,100 960 Climbing Fort Worth Center
07:14PM 33.6694 -101.6586 78° East 143 165 7,100 900 Climbing Fort Worth Center
07:15PM 33.6811 -101.6144 72° East 149 171 8,000 780 Climbing Fort Worth Center
07:16PM 33.6975 -101.5653 68° East 150 173 8,800 600 Climbing Fort Worth Center
07:17PM 33.7056 -101.5131 79° East 162 186 9,300 420 Climbing Fort Worth Center
07:18PM 33.7139 -101.4461 81° East 169 194 9,700 120 Climbing Fort Worth Center
07:19PM 33.7092 -101.3986 97° East 196 226 9,600 -180 Descending Fort Worth Center
07:20PM 33.7072 -101.3258 92° East 211 243 9,400  Descending Fort Worth Center
07:21PM 33.7006 -101.2708 98° East 199 229 9,600  Climbing Fort Worth Center
07:22PM 33.6775 -101.2072 114° Southeast 188 216 9,500  Descending Fort Worth Center
07:23PM 33.6603 -101.1592 113° Southeast 182 209 9,600  Climbing Fort Worth Center
07:24PM 33.6389 -101.1008 114° Southeast 176 203 9,600  Level Fort Worth Center
07:25PM 33.6217 -101.0528 113° Southeast 176 203 9,700  Climbing Fort Worth Center
07:26PM 33.6067 -100.9922 107° East 171 197 9,600 -60 Descending Fort Worth Center
07:27PM 33.5933 -100.9444 109° East 171 197 9,600 -60 Level Fort Worth Center
07:28PM 33.5786 -100.8814 106° East 171 197 9,500 -60 Descending Fort Worth Center
07:29PM 33.5672 -100.8311 105° East 171 197 9,500  Level Fort Worth Center
07:30PM 33.5544 -100.7658 103° East 171 197 9,600  Climbing Fort Worth Center
07:31PM 33.5433 -100.7131 104° East 171 197 9,600  Level Fort Worth Center
07:32PM 33.5281 -100.6553 108° East 178 205 9,600  Level Fort Worth Center
07:33PM 33.5131 -100.5975 107° East 178 205 9,600 -60 Level Fort Worth Center
07:34PM 33.5039 -100.5422 101° East 178 205 9,500 -60 Descending Fort Worth Center
07:35PM 33.4992 -100.4847 96° East 173 199 9,500  Level Fort Worth Center
07:36PM 33.4986 -100.4225 91° East 173 199 9,500 -60 Level Fort Worth Center
07:37PM 33.5000 -100.3603 88° East 179 206 9,400  Descending Fort Worth Center
07:38PM 33.4950 -100.3028 96° East 179 206 9,600  Climbing Fort Worth Center
07:39PM 33.4922 -100.2456 93° East 179 206 9,500 -60 Descending Fort Worth Center
07:40PM 33.4872 -100.1856 96° East 179 206 9,500  Level Fort Worth Center
07:41PM 33.4867 -100.1233 91° East 179 206 9,600  Climbing Fort Worth Center
07:42PM 33.4814 -100.0658 96° East 179 206 9,600  Level Fort Worth Center
07:43PM 33.4764 -100.0058 96° East 179 206 9,600  Level Fort Worth Center
07:44PM 33.4692 -99.9508 99° East 179 206 9,600  Level Fort Worth Center
07:45PM 33.4581 -99.8883 102° East 179 206 9,600 -60 Level Fort Worth Center
07:46PM 33.4550 -99.8311 94° East 179 206 9,500 -60 Descending Fort Worth Center
07:47PM 33.4519 -99.7661 93° East 179 206 9,500  Level Fort Worth Center
07:48PM 33.4511 -99.7064 91° East 179 206 9,500  Level Fort Worth Center
07:49PM 33.4458 -99.6489 96° East 179 206 9,500  Level Fort Worth Center
07:50PM 33.4428 -99.5892 93° East 179 206 9,500  Level Fort Worth Center
07:51PM 33.4356 -99.5267 98° East 179 206 9,500  Level Fort Worth Center
07:52PM 33.4322 -99.4669 94° East 179 206 9,500  Level Fort Worth Center
07:53PM 33.4269 -99.4072 96° East 179 206 9,500  Level Fort Worth Center
07:54PM 33.4239 -99.3422 93° East 179 206 9,500  Level Fort Worth Center
07:55PM 33.4164 -99.2825 99° East 178 205 9,500  Level Fort Worth Center
07:56PM 33.4089 -99.2250 99° East 178 205 9,500  Level Fort Worth Center
07:57PM 33.3994 -99.1628 100° East 183 211 9,500  Level Fort Worth Center
07:58PM 33.3917 -99.1028 99° East 177 204 9,600  Climbing Fort Worth Center
07:59PM 33.3861 -99.0481 97° East 182 209 9,600  Level Fort Worth Center
08:00PM 33.3808 -98.9808 95° East 182 209 9,600 -60 Level Fort Worth Center
08:01PM 33.3753 -98.9208 96° East 182 209 9,500  Descending Fort Worth Center
08:02PM 33.3697 -98.8611 96° East 182 209 9,600  Climbing Fort Worth Center
08:03PM 33.3661 -98.8064 95° East 182 209 9,600  Level Fort Worth Center
08:04PM 33.3564 -98.7489 101° East 182 209 9,600  Level Fort Worth Center
08:05PM 33.3531 -98.6817 93° East 182 209 9,600  Level Fort Worth Center
08:06PM 33.3494 -98.6194 94° East 182 209 9,600 -60 Level Fort Worth Center
08:07PM 33.3436 -98.5597 97° East 182 209 9,500  Descending Fort Worth Center
08:08PM 33.3378 -98.5050 97° East 182 209 9,600  Climbing Fort Worth Center
08:09PM 33.3300 -98.4453 99° East 182 209 9,600 -60 Level Fort Worth Center
08:10PM 33.3203 -98.3781 100° East 182 209 9,500 -60 Descending Fort Worth Center
08:11PM 33.3103 -98.3158 101° East 182 209 9,500 -60 Level Fort Worth Center
08:12PM 33.3064 -98.2561 94° East 182 209 9,400 -60 Descending Fort Worth Center
08:13PM 33.2964 -98.2014 102° East 182 209 9,400  Level Fort Worth Center
08:14PM 33.2822 -98.1342 104° East 182 209 9,500  Climbing Fort Worth Center
08:15PM 33.2719 -98.0844 104° East 182 209 9,400 -360 Descending Fort Worth Center
08:16PM 33.2556 -98.0147 106° East 189 217 8,800 -660 Descending Fort Worth Center
08:17PM 33.2414 -97.9575 106° East 189 217 8,100 -960 Descending Fort Worth Center
08:18PM 33.2122 -97.8903 117° Southeast 199 229 6,900 -1,020 Descending Fort Worth Center
08:19PM 33.2000 -97.8306 104° East 199 229 6,100 -780 Descending Fort Worth Center
08:20PM 33.1939 -97.7586 96° East 194 223 5,400 -540 Descending Fort Worth Center
08:21PM 33.1878 -97.7014 97° East 194 223 5,100 -300 Descending Fort Worth Center
08:22PM 33.1817 -97.6319 96° East 194 223 4,900 -300 Descending Fort Worth Center
08:23PM 33.1833 -97.6000 86° East 190 219 4,700 -360 Descending Dallas / Fort Worth TRACON
08:24PM 33.1667 -97.5333 107° East 190 219 4,400 -240 Descending Dallas / Fort Worth TRACON
08:25PM 33.1667 -97.4667 90° East 188 216 4,200 -300 Descending Dallas / Fort Worth TRACON
08:26PM 33.1500 -97.4000 107° East 188 216 3,800 -420 Descending Dallas / Fort Worth TRACON
08:27PM 33.1500 -97.3333 90° East 190 219 3,400 -360 Descending Dallas / Fort Worth TRACON
08:28PM 33.1333 -97.2833 112° Southeast 197 227 3,100 -420 Descending Dallas / Fort Worth TRACON
08:29PM 33.1172 -97.2050 104° East 184 212 2,500 -420 Descending Fort Worth Center
08:30PM 33.1044 -97.1381 103° East 184 212 2,200 -360 Descending Fort Worth Center
08:31PM 33.1000 -97.0833 96° East 190 219 1,900 -180 Descending Dallas / Fort Worth TRACON
08:32PM 33.0833 -97.0167 107° East 179 206 1,900  Level Dallas / Fort Worth TRACON
08:33PM 33.0833 -96.9667 90° East 174 200 2,000 60 Climbing Dallas / Fort Worth TRACON
08:34PM 33.0500 -96.9167 128° Southeast 170 196 2,100  Climbing Dallas / Fort Worth TRACON
08:35PM 33.0333 -96.8667 112° Southeast 139 160 2,000 -420 Descending Dallas / Fort Worth TRACON
08:36PM 33.0000 -96.8500 157° South 114 131 1,300 -720 Descending Dallas / Fort Worth TRACON
08:38PM 32.9667 -96.8333 121° Southeast  Level FlightAware Approximate
08:45PM 32.9686 -96.8364 121° Southeast  Level Estimated
08:46PM 32.9667 -96.8333 121° Southeast  Level FlightAware Approximate
08:47PM 32.9686 -96.8364 121° Southeast  Level Estimated
08:48PM 32.9667 -96.8333 121° Southeast  Level FlightAware Approximate
08:49PM 32.9686 -96.8364 121° Southeast  Level Estimated
08:50PM 32.9667 -96.8333 121° Southeast  Level FlightAware Approximate
08:51PM 32.9686 -96.8364 121° Southeast  Level Estimated
08:52PM 32.9667 -96.8333 121° Southeast  Level FlightAware Approximate
08:53PM 32.9686 -96.8364 121° Southeast  Level Estimated
08:54PM 32.9667 -96.8333 121° Southeast  Level FlightAware Approximate
08:55PM 32.9686 -96.8364 121° Southeast  Level Estimated
08:56PM 32.9667 -96.8333 121° Southeast  Level FlightAware Approximate
08:57PM 32.9686 -96.8364 121° Southeast  Level Estimated
08:58PM 32.9667 -96.8333 121° Southeast  Level FlightAware Approximate
08:59PM 32.9686 -96.8364 121° Southeast  Level Estimated
09:00PM 32.9667 -96.8333 121° Southeast  Level FlightAware Approximate
09:01PM 32.9686 -96.8364 121° Southeast  Level Estimated
09:02PM 32.9667 -96.8333 121° Southeast  Level FlightAware Approximate
09:03PM 32.9686 -96.8364 121° Southeast  Level Estimated
09:04PM 32.9667 -96.8333 121° Southeast  Level FlightAware Approximate
09:05PM 32.9686 -96.8364 121° Southeast  Level Estimated
09:06PM 32.9667 -96.8333 121° Southeast  Level FlightAware Approximate
09:07PM 32.9686 -96.8364 121° Southeast  Level Estimated
09:08PM 32.9667 -96.8333 121° Southeast  Level FlightAware Approximate
09:09PM 32.9686 -96.8364 121° Southeast  Level Estimated
09:10PM 32.9667 -96.8333 121° Southeast  Level FlightAware Approximate
09:11PM 32.9686 -96.8364 121° Southeast  Level Estimated
09:12PM 32.9667 -96.8333 121° Southeast  Level FlightAware Approximate
09:13PM 32.9686 -96.8364 121° Southeast  Level Estimated
09:14PM 32.9667 -96.8333 121° Southeast  Level FlightAware Approximate
09:15PM 32.9686 -96.8364 121° Southeast  Level Estimated
09:16PM 32.9667 -96.8333 121° Southeast  Level FlightAware Approximate
09:17PM 32.9686 -96.8364 121° Southeast  Level Estimated
09:18PM 32.9667 -96.8333 121° Southeast  Level FlightAware Approximate
09:19PM 32.9686 -96.8364 121° Southeast  Level Estimated
09:20PM 32.9667 -96.8333 121° Southeast  Level FlightAware Approximate
09:21PM 32.9686 -96.8364 121° Southeast  Level Estimated
09:22PM 32.9667 -96.8333 121° Southeast  Level FlightAware Approximate
09:23PM 32.9686 -96.8364 121° Southeast  Level Estimated
09:24PM 32.9667 -96.8333 121° Southeast  Level FlightAware Approximate
09:25PM 32.9686 -96.8364 121° Southeast  Level Estimated
09:26PM 32.9667 -96.8333 121° Southeast  Level FlightAware Approximate
09:27PM 32.9686 -96.8364 121° Southeast  Level Estimated
09:28PM 32.9667 -96.8333 121° Southeast  Level FlightAware Approximate
09:29PM 32.9686 -96.8364 121° Southeast  Level Estimated
09:30PM 32.9667 -96.8333 121° Southeast  Level FlightAware Approximate
09:31PM 32.9686 -96.8364 121° Southeast  Level Estimated
09:32PM 32.9667 -96.8333 121° Southeast  Level FlightAware Approximate